Terminal Aerodrome Forecast
Issued by NWS Duluth, MN

Home | Current Version | Previous Version | Text Only | Print | Product List | Glossary On
Versions: 1 2 3 4 5 6 7 8 9 10 11 12 13 14 15 16 17 18 19 20 21 22 23 24 25 26
828
FTUS43 KDLH 031144
TAFDLH
TAF
KDLH 031144Z 0312/0412 29004KT P6SM OVC008
     FM031600 27005KT P6SM OVC012
     FM032000 23007KT P6SM OVC018
     FM040600 17007KT P6SM VCSH OVC012=

USA.gov is the U.S. government's official web portal to all federal, state and local government web resources and services.